Time;durP1;ratioP1;P1;durP2;ratioP2;P2;SDS_P1;SDS_P2;PMS_P1;PMS_P2;Temp;Humidity;BMP_temperature;BMP_pressure;BME280_temperature;BME280_humidity;BME280_pressure;Samples;Min_cycle;Max_cycle;Signal;HPM_P1;HPM_P2
2022/09/02 00:02:25;;;;;;;2.60;1.40;;;16.30;85.30;;;;;;5053231;28;21026;-76
2022/09/02 00:04:54;;;;;;;2.10;1.50;;;16.30;85.50;;;;;;5051984;28;20456;-76
2022/09/02 00:07:22;;;;;;;2.60;1.40;;;16.20;85.50;;;;;;5053202;28;20492;-76
2022/09/02 00:09:52;;;;;;;2.17;1.30;;;16.20;85.60;;;;;;5053031;28;20436;-76
2022/09/02 00:12:20;;;;;;;2.27;1.23;;;16.20;85.80;;;;;;5053144;28;20438;-76
2022/09/02 00:14:48;;;;;;;2.60;1.70;;;16.10;85.80;;;;;;5053402;28;20418;-76
2022/09/02 00:17:17;;;;;;;3.40;1.80;;;16.10;86.00;;;;;;5053423;28;20446;-76
2022/09/02 00:19:45;;;;;;;2.67;1.50;;;16.10;86.10;;;;;;5053293;28;20440;-76
2022/09/02 00:22:13;;;;;;;2.37;1.53;;;16.00;86.20;;;;;;5052973;28;20554;-76
2022/09/02 00:24:41;;;;;;;2.23;1.23;;;16.00;86.30;;;;;;5053283;28;20430;-76
2022/09/02 00:27:11;;;;;;;5.20;1.40;;;16.00;86.40;;;;;;5053305;28;21030;-76
2022/09/02 00:29:39;;;;;;;2.40;1.20;;;16.00;86.60;;;;;;5051699;28;20543;-76
2022/09/02 00:32:07;;;;;;;1.90;1.30;;;15.90;86.60;;;;;;5051689;28;20706;-76
2022/09/02 00:34:35;;;;;;;2.00;1.40;;;15.90;86.70;;;;;;5051798;28;20516;-77
2022/09/02 00:37:04;;;;;;;2.07;1.50;;;15.90;86.80;;;;;;5052235;28;20442;-76
2022/09/02 00:39:32;;;;;;;2.73;1.40;;;15.80;86.90;;;;;;5052146;28;20466;-76
2022/09/02 00:42:01;;;;;;;2.43;1.43;;;15.80;87.00;;;;;;5053461;28;20473;-76
2022/09/02 00:44:30;;;;;;;2.10;1.60;;;15.80;87.10;;;;;;5051622;28;20421;-76
2022/09/02 00:46:59;;;;;;;2.43;1.40;;;15.80;87.20;;;;;;5051754;28;20448;-76
2022/09/02 00:49:30;;;;;;;2.30;1.50;;;15.70;87.30;;;;;;5052978;28;20431;-76
2022/09/02 00:52:03;;;;;;;2.67;1.50;;;15.70;87.40;;;;;;5052859;28;20393;-76
2022/09/02 00:54:34;;;;;;;2.30;1.50;;;15.60;87.50;;;;;;5051656;28;20454;-76
2022/09/02 00:57:08;;;;;;;2.10;1.67;;;15.60;87.60;;;;;;5051599;28;20455;-76
2022/09/02 00:59:46;;;;;;;2.37;1.90;;;15.60;87.80;;;;;;5051495;28;20983;-76
2022/09/02 01:02:15;;;;;;;2.20;1.70;;;15.60;88.10;;;;;;5051475;28;20461;-76
2022/09/02 01:04:45;;;;;;;2.20;1.70;;;15.50;88.10;;;;;;5051447;28;20413;-76
2022/09/02 01:07:14;;;;;;;2.53;1.87;;;15.50;88.20;;;;;;5055420;28;20434;-76
2022/09/02 01:09:43;;;;;;;3.10;2.30;;;15.50;88.30;;;;;;5056145;28;20565;-76
2022/09/02 01:12:12;;;;;;;2.87;1.70;;;15.50;88.50;;;;;;5055031;28;20541;-76
2022/09/02 01:14:42;;;;;;;2.87;2.00;;;15.40;88.50;;;;;;5054935;28;20516;-76
2022/09/02 01:17:10;;;;;;;2.60;1.80;;;15.40;88.70;;;;;;5054942;28;20491;-76
2022/09/02 01:19:43;;;;;;;1.90;1.50;;;15.40;88.80;;;;;;5054801;28;20552;-76
2022/09/02 01:22:19;;;;;;;2.83;1.93;;;15.30;89.50;;;;;;5056377;28;20454;-76
2022/09/02 01:24:47;;;;;;;3.13;1.50;;;15.30;89.00;;;;;;5054843;28;20405;-76
2022/09/02 01:27:17;;;;;;;2.40;1.47;;;15.30;89.00;;;;;;5054760;28;20507;-76
2022/09/02 01:29:46;;;;;;;2.90;1.83;;;15.30;89.20;;;;;;5054641;28;20524;-76
2022/09/02 01:32:14;;;;;;;3.30;1.80;;;15.30;89.40;;;;;;5056116;28;20451;-76
2022/09/02 01:34:42;;;;;;;2.43;1.87;;;15.20;89.40;;;;;;5056173;28;20416;-76
2022/09/02 01:37:11;;;;;;;3.40;2.03;;;15.20;89.50;;;;;;5055868;28;20500;-76
2022/09/02 01:39:40;;;;;;;8.43;2.00;;;15.20;89.60;;;;;;5054435;28;20565;-76
2022/09/02 01:42:09;;;;;;;2.73;1.57;;;15.10;89.60;;;;;;5054749;28;20444;-76
2022/09/02 01:44:42;;;;;;;3.40;1.87;;;15.10;89.70;;;;;;5054445;28;20530;-76
2022/09/02 01:47:11;;;;;;;3.23;2.10;;;15.10;89.90;;;;;;5054447;28;20421;-76
2022/09/02 01:49:40;;;;;;;2.57;1.77;;;15.10;90.00;;;;;;5054289;28;20458;-76
2022/09/02 01:52:09;;;;;;;2.40;1.50;;;15.10;90.00;;;;;;5054310;28;20446;-76
2022/09/02 01:54:38;;;;;;;2.97;2.00;;;15.00;90.10;;;;;;5054231;28;20476;-76
2022/09/02 01:57:09;;;;;;;9.10;2.33;;;15.00;90.20;;;;;;5054503;28;20431;-76
2022/09/02 01:59:38;;;;;;;3.03;1.70;;;15.00;90.20;;;;;;5054200;28;20505;-76
2022/09/02 02:02:07;;;;;;;2.53;1.77;;;14.90;90.20;;;;;;5054104;28;20501;-76
2022/09/02 02:04:36;;;;;;;2.80;2.10;;;14.90;90.30;;;;;;5054037;28;20456;-76
2022/09/02 02:07:06;;;;;;;4.20;1.90;;;14.90;90.40;;;;;;5055272;28;20945;-76
2022/09/02 02:09:35;;;;;;;2.23;1.87;;;14.90;90.40;;;;;;5053786;28;20445;-76
2022/09/02 02:12:05;;;;;;;2.87;1.90;;;14.90;90.40;;;;;;5053840;28;20868;-76
2022/09/02 02:14:35;;;;;;;2.40;1.90;;;14.80;90.50;;;;;;5053944;28;20880;-76
2022/09/02 02:17:05;;;;;;;2.93;1.73;;;14.80;90.50;;;;;;5054110;28;20450;-76
2022/09/02 02:19:33;;;;;;;2.83;1.60;;;14.80;90.80;;;;;;5052931;28;20811;-76
2022/09/02 02:22:01;;;;;;;2.20;1.80;;;14.80;90.60;;;;;;5053581;28;20543;-76
2022/09/02 02:24:30;;;;;;;3.40;2.00;;;14.70;90.60;;;;;;5053660;28;20507;-76
2022/09/02 02:26:58;;;;;;;4.17;2.23;;;14.70;90.60;;;;;;5053953;28;20442;-76
2022/09/02 02:29:26;;;;;;;2.30;1.90;;;14.70;90.90;;;;;;5054257;28;20872;-76
2022/09/02 02:31:56;;;;;;;2.40;1.90;;;14.70;90.60;;;;;;5053814;28;20454;-76
2022/09/02 02:34:25;;;;;;;2.80;2.20;;;14.70;90.60;;;;;;5053531;28;20425;-76
2022/09/02 02:36:53;;;;;;;3.70;2.27;;;14.60;90.60;;;;;;5053488;28;20429;-76
2022/09/02 02:39:21;;;;;;;2.47;1.80;;;14.60;90.70;;;;;;5053470;28;20528;-76
2022/09/02 02:41:50;;;;;;;2.63;2.07;;;14.60;90.70;;;;;;5053299;28;20955;-76
2022/09/02 02:44:19;;;;;;;3.63;2.40;;;14.50;90.70;;;;;;5053318;28;20499;-76
2022/09/02 02:46:47;;;;;;;2.83;2.20;;;14.50;90.80;;;;;;5054818;28;20442;-76
2022/09/02 02:49:17;;;;;;;3.60;2.00;;;14.50;90.80;;;;;;5053144;28;20548;-76
2022/09/02 02:51:45;;;;;;;2.93;2.20;;;14.50;90.90;;;;;;5053172;28;20500;-76
2022/09/02 02:54:14;;;;;;;3.00;2.33;;;14.40;90.90;;;;;;5053147;28;20467;-76
2022/09/02 02:56:43;;;;;;;4.50;1.90;;;14.40;91.00;;;;;;5053146;28;20423;-76
2022/09/02 02:59:11;;;;;;;2.03;1.73;;;14.40;91.10;;;;;;5052904;28;20889;-76
2022/09/02 03:01:39;;;;;;;2.53;2.33;;;14.40;91.20;;;;;;5052947;28;20446;-76
2022/09/02 03:04:08;;;;;;;3.00;2.37;;;14.30;91.20;;;;;;5052840;28;20479;-76
2022/09/02 03:06:38;;;;;;;2.70;2.50;;;14.30;91.30;;;;;;5052873;28;20953;-76
2022/09/02 03:09:06;;;;;;;4.30;1.87;;;14.30;91.40;;;;;;5052657;28;20456;-76
2022/09/02 03:11:37;;;;;;;2.63;2.23;;;14.30;91.50;;;;;;5052755;28;20967;-76
2022/09/02 03:14:07;;;;;;;2.87;2.20;;;14.30;91.60;;;;;;5052714;28;20413;-76
2022/09/02 03:16:36;;;;;;;2.43;1.83;;;14.30;91.60;;;;;;5052723;28;20481;-76
2022/09/02 03:19:04;;;;;;;3.30;2.30;;;14.20;91.40;;;;;;5052687;28;20870;-76
2022/09/02 03:21:33;;;;;;;2.67;2.00;;;14.20;91.60;;;;;;5053127;28;20450;-76
2022/09/02 03:24:11;;;;;;;3.00;2.17;;;14.20;91.70;;;;;;5052521;28;20472;-76
2022/09/02 03:26:42;;;;;;;2.20;2.00;;;14.10;91.70;;;;;;5052591;28;20446;-76
2022/09/02 03:29:12;;;;;;;3.33;2.30;;;14.10;91.70;;;;;;5052200;28;20466;-76
2022/09/02 03:31:40;;;;;;;2.60;2.17;;;14.10;91.80;;;;;;5053096;28;20412;-76
2022/09/02 03:34:09;;;;;;;2.83;1.77;;;14.10;91.80;;;;;;5052639;28;20861;-76
2022/09/02 03:36:39;;;;;;;3.00;2.17;;;14.10;91.80;;;;;;5052345;28;20446;-76
2022/09/02 03:39:11;;;;;;;2.53;1.70;;;14.00;91.80;;;;;;5052403;28;20470;-76
2022/09/02 03:41:42;;;;;;;4.63;2.30;;;14.00;91.90;;;;;;5052323;28;20409;-76
2022/09/02 03:44:11;;;;;;;2.77;2.10;;;14.00;91.90;;;;;;5052267;28;20465;-76
2022/09/02 03:46:41;;;;;;;2.63;2.13;;;13.90;91.90;;;;;;5052248;28;20457;-76
2022/09/02 03:49:10;;;;;;;2.40;2.20;;;13.90;92.20;;;;;;5052145;28;20474;-76
2022/09/02 03:51:41;;;;;;;2.70;2.20;;;13.80;91.90;;;;;;5052136;28;20449;-76
2022/09/02 03:54:11;;;;;;;3.73;2.33;;;13.80;91.90;;;;;;5052141;28;20416;-76
2022/09/02 03:56:41;;;;;;;3.50;2.20;;;13.80;92.00;;;;;;5052153;28;21016;-76
2022/09/02 03:59:10;;;;;;;3.00;2.40;;;13.80;92.00;;;;;;5051922;28;20470;-76
2022/09/02 04:01:38;;;;;;;4.70;2.37;;;13.70;92.00;;;;;;5052123;28;20485;-76
2022/09/02 04:04:08;;;;;;;2.90;2.60;;;13.70;92.30;;;;;;5051924;28;20448;-77
2022/09/02 04:06:39;;;;;;;3.00;2.30;;;13.70;92.10;;;;;;5052003;28;20465;-76
2022/09/02 04:09:07;;;;;;;2.50;2.27;;;13.60;92.10;;;;;;5053041;28;20466;-76
2022/09/02 04:11:41;;;;;;;3.80;2.60;;;13.60;92.20;;;;;;5052299;28;20766;-76
2022/09/02 04:14:11;;;;;;;2.70;2.10;;;13.60;92.20;;;;;;5051939;28;20525;-76
2022/09/02 04:16:40;;;;;;;3.63;1.90;;;13.50;92.20;;;;;;5051869;28;20472;-76
2022/09/02 04:19:09;;;;;;;3.07;2.53;;;13.50;92.30;;;;;;5051824;28;20527;-76
2022/09/02 04:21:40;;;;;;;3.93;2.03;;;13.50;92.60;;;;;;5051854;28;20783;-76
2022/09/02 04:24:11;;;;;;;2.83;2.47;;;13.50;92.70;;;;;;5051981;28;20561;-76
2022/09/02 04:26:44;;;;;;;2.80;2.23;;;13.40;92.40;;;;;;5052134;28;20499;-76
2022/09/02 04:29:16;;;;;;;3.27;2.63;;;13.40;92.50;;;;;;5051867;28;20466;-76
2022/09/02 04:31:47;;;;;;;3.03;2.73;;;13.40;92.50;;;;;;5051923;28;20532;-76
2022/09/02 04:34:16;;;;;;;2.80;2.47;;;13.30;92.60;;;;;;5051774;28;20438;-76
2022/09/02 04:36:44;;;;;;;3.93;3.10;;;13.30;92.80;;;;;;5051699;28;20484;-76
2022/09/02 04:39:13;;;;;;;4.67;2.70;;;13.30;93.00;;;;;;5051661;28;20470;-76
2022/09/02 04:41:41;;;;;;;4.10;2.30;;;13.30;93.20;;;;;;5054394;28;20438;-76
2022/09/02 04:44:13;;;;;;;3.77;2.90;;;13.30;93.30;;;;;;5055667;28;20508;-76
2022/09/02 04:46:45;;;;;;;3.03;2.43;;;13.30;93.50;;;;;;5055736;28;20452;-76
2022/09/02 04:49:17;;;;;;;4.33;2.97;;;13.30;93.60;;;;;;5055570;28;20481;-76
2022/09/02 04:51:46;;;;;;;2.90;2.60;;;13.20;93.70;;;;;;5055904;28;20496;-76
2022/09/02 04:54:14;;;;;;;4.43;2.77;;;13.20;93.80;;;;;;5055631;28;20481;-76
2022/09/02 04:56:47;;;;;;;4.10;3.70;;;13.20;94.00;;;;;;5055742;28;20496;-76
2022/09/02 04:59:19;;;;;;;4.43;2.97;;;13.20;94.10;;;;;;5055419;28;20490;-76
2022/09/02 05:01:58;;;;;;;4.07;3.63;;;13.20;94.30;;;;;;5056249;28;20473;-76
2022/09/02 05:04:30;;;;;;;3.67;3.20;;;13.20;94.40;;;;;;5055316;28;20465;-76
2022/09/02 05:07:00;;;;;;;3.20;2.73;;;13.20;94.50;;;;;;5055197;28;20496;-76
2022/09/02 05:09:31;;;;;;;3.37;2.80;;;13.10;94.60;;;;;;5055001;28;20510;-76
2022/09/02 05:12:04;;;;;;;2.80;2.50;;;13.10;95.10;;;;;;5055179;28;20426;-75
2022/09/02 05:14:42;;;;;;;3.60;3.30;;;13.10;94.90;;;;;;5055140;28;20434;-75
2022/09/02 05:17:12;;;;;;;4.13;2.90;;;13.10;95.40;;;;;;5055039;28;20413;-76
2022/09/02 05:19:43;;;;;;;3.40;2.60;;;13.10;95.20;;;;;;5054927;28;20444;-75
2022/09/02 05:22:13;;;;;;;3.40;3.10;;;13.10;95.30;;;;;;5054926;28;20808;-76
2022/09/02 05:24:43;;;;;;;3.60;2.73;;;13.10;95.40;;;;;;5054872;28;20543;-75
2022/09/02 05:27:14;;;;;;;4.83;2.97;;;13.20;95.60;;;;;;5054882;28;20446;-76
2022/09/02 05:29:45;;;;;;;3.60;3.03;;;13.10;95.70;;;;;;5054773;28;20500;-75
2022/09/02 05:32:16;;;;;;;3.33;3.03;;;13.20;95.90;;;;;;5055044;28;20537;-76
2022/09/02 05:34:47;;;;;;;4.17;3.60;;;13.10;95.90;;;;;;5054711;28;20416;-76
2022/09/02 05:37:16;;;;;;;5.07;4.33;;;13.20;96.40;;;;;;5054602;28;20452;-76
2022/09/02 05:39:45;;;;;;;6.10;3.50;;;13.20;96.30;;;;;;5054584;28;20462;-76
2022/09/02 05:42:15;;;;;;;4.30;4.00;;;13.20;96.40;;;;;;5054722;28;20480;-76
2022/09/02 05:44:47;;;;;;;3.50;3.20;;;13.20;96.50;;;;;;5054502;28;20847;-75
2022/09/02 05:47:19;;;;;;;4.10;3.70;;;13.20;96.60;;;;;;5054433;28;20438;-76
2022/09/02 05:49:48;;;;;;;3.70;3.30;;;13.20;96.70;;;;;;5054331;28;20466;-76
2022/09/02 05:52:17;;;;;;;5.00;4.20;;;13.20;96.80;;;;;;5054148;28;20496;-75
2022/09/02 05:54:51;;;;;;;3.97;3.50;;;13.20;97.00;;;;;;5053795;28;20860;-76
2022/09/02 05:57:21;;;;;;;3.40;3.10;;;13.20;97.10;;;;;;5054546;28;20821;-76
2022/09/02 05:59:59;;;;;;;3.80;3.40;;;13.20;97.20;;;;;;5054125;28;20470;-75
2022/09/02 06:02:43;;;;;;;4.83;4.33;;;13.30;97.40;;;;;;5055794;28;20900;-76
2022/09/02 06:05:21;;;;;;;4.90;3.57;;;13.30;97.40;;;;;;5054083;28;20983;-76
2022/09/02 06:07:57;;;;;;;4.17;3.57;;;13.40;97.50;;;;;;5054027;28;20446;-76
2022/09/02 06:10:25;;;;;;;4.20;3.80;;;13.50;97.60;;;;;;5054036;28;20477;-76
2022/09/02 06:12:54;;;;;;;8.00;3.77;;;13.60;97.70;;;;;;5053930;28;20492;-76
2022/09/02 06:15:29;;;;;;;4.50;3.30;;;13.80;97.80;;;;;;5053995;28;20450;-76
2022/09/02 06:18:00;;;;;;;4.57;4.17;;;14.10;97.90;;;;;;5054019;28;20472;-76
2022/09/02 06:20:31;;;;;;;4.70;4.30;;;14.30;97.90;;;;;;5054659;28;20466;-76
2022/09/02 06:23:01;;;;;;;4.90;4.50;;;14.50;97.90;;;;;;5053802;28;20530;-75
2022/09/02 06:25:31;;;;;;;5.20;4.37;;;14.70;97.90;;;;;;5053776;28;20461;-76
2022/09/02 06:27:59;;;;;;;5.30;4.80;;;14.90;97.80;;;;;;5053651;28;20445;-76
2022/09/02 06:30:38;;;;;;;5.37;4.87;;;15.10;97.80;;;;;;5054909;28;20469;-76
2022/09/02 06:33:08;;;;;;;6.30;4.80;;;15.30;97.80;;;;;;5053834;28;20417;-76
2022/09/02 06:35:38;;;;;;;6.87;6.27;;;15.50;97.70;;;;;;5055480;28;20943;-76
2022/09/02 06:38:10;;;;;;;6.33;5.00;;;15.70;97.70;;;;;;5053496;28;20449;-76
2022/09/02 06:40:47;;;;;;;5.70;5.20;;;16.00;97.70;;;;;;5053432;28;20441;-76
2022/09/02 06:43:17;;;;;;;6.93;6.40;;;16.20;97.60;;;;;;5053679;28;20496;-75
2022/09/02 06:46:15;;;;;;;6.67;6.17;;;16.40;97.50;;;;;;5051621;28;21005;-76
2022/09/02 06:48:46;;;;;;;7.90;7.20;;;16.60;97.20;;;;;;5053316;28;20438;-76
2022/09/02 06:51:20;;;;;;;6.63;6.07;;;16.80;97.10;;;;;;5053087;28;20429;-76
2022/09/02 06:53:55;;;;;;;7.97;7.37;;;17.00;97.00;;;;;;5053300;28;20417;-75
2022/09/02 06:56:27;;;;;;;7.93;7.33;;;17.10;96.90;;;;;;5053144;28;20438;-76
2022/09/02 06:58:56;;;;;;;9.33;8.63;;;17.30;96.70;;;;;;5054218;28;20464;-76
2022/09/02 07:01:37;;;;;;;8.30;7.50;;;17.50;96.50;;;;;;5054400;28;20385;-76
2022/09/02 07:06:55;;;;;;;7.73;7.10;;;17.70;96.10;;;;;;5053124;28;20442;-76
2022/09/02 07:09:29;;;;;;;7.20;6.70;;;17.90;96.10;;;;;;5052734;28;20469;-77
2022/09/02 07:12:05;;;;;;;7.97;7.43;;;18.00;96.00;;;;;;5053272;28;20939;-76
2022/09/02 07:14:39;;;;;;;7.73;6.93;;;18.20;95.80;;;;;;5052897;28;20430;-76
2022/09/02 07:17:16;;;;;;;9.60;8.63;;;18.30;95.60;;;;;;5052935;28;20443;-76
2022/09/02 07:19:48;;;;;;;9.10;8.30;;;18.40;95.50;;;;;;5052769;28;21019;-76
2022/09/02 07:22:16;;;;;;;9.20;8.50;;;18.40;95.40;;;;;;5052809;28;20500;-76
2022/09/02 07:24:46;;;;;;;10.20;9.20;;;18.50;95.20;;;;;;5052819;28;20466;-76
2022/09/02 07:27:15;;;;;;;9.63;8.63;;;18.60;95.10;;;;;;5054288;28;20449;-77
2022/09/02 07:29:47;;;;;;;10.60;9.20;;;18.60;94.80;;;;;;5052548;28;20498;-76
2022/09/02 07:32:20;;;;;;;10.83;9.70;;;18.70;94.80;;;;;;5053573;28;20794;-76
2022/09/02 07:34:48;;;;;;;10.73;9.83;;;18.80;94.70;;;;;;5053565;28;20481;-76
2022/09/02 07:37:17;;;;;;;18.90;9.93;;;18.90;94.60;;;;;;5052463;28;20478;-76
2022/09/02 07:39:45;;;;;;;11.03;10.17;;;19.00;94.60;;;;;;5052441;28;20577;-76
2022/09/02 07:42:17;;;;;;;11.20;10.30;;;19.10;94.50;;;;;;5052501;28;20503;-76
2022/09/02 07:44:46;;;;;;;11.53;10.50;;;19.20;94.50;;;;;;5052613;28;20450;-76
2022/09/02 07:47:15;;;;;;;14.20;12.77;;;19.30;94.40;;;;;;5052401;28;20537;-76
2022/09/02 07:49:47;;;;;;;12.37;11.30;;;19.40;94.20;;;;;;5052276;28;20488;-77
2022/09/02 07:52:35;;;;;;;11.13;10.20;;;19.50;94.00;;;;;;5053496;28;20438;-76
2022/09/02 07:55:04;;;;;;;10.90;9.90;;;19.50;93.80;;;;;;5052341;28;20438;-76
2022/09/02 07:57:33;;;;;;;12.50;11.40;;;19.60;93.70;;;;;;5052248;28;20881;-77
2022/09/02 08:00:03;;;;;;;11.30;10.50;;;19.60;93.70;;;;;;5052073;28;20469;-76
2022/09/02 08:02:41;;;;;;;11.47;10.50;;;19.80;93.70;;;;;;5053532;28;20430;-76
2022/09/02 08:05:14;;;;;;;10.60;9.60;;;19.80;93.40;;;;;;5052066;28;20458;-76
2022/09/02 08:07:42;;;;;;;11.80;10.70;;;19.90;93.40;;;;;;5053424;28;20430;-76
2022/09/02 08:10:11;;;;;;;11.87;10.80;;;20.00;93.30;;;;;;5053463;28;20468;-76
2022/09/02 08:12:40;;;;;;;11.37;10.47;;;20.00;93.20;;;;;;5054027;28;20439;-76
2022/09/02 08:15:11;;;;;;;11.37;10.47;;;20.10;93.10;;;;;;5054014;28;20430;-76
2022/09/02 08:17:40;;;;;;;11.07;10.10;;;20.20;93.10;;;;;;5058541;28;20448;-77
2022/09/02 08:20:11;;;;;;;10.93;10.13;;;20.20;92.90;;;;;;5059981;28;20461;-76
2022/09/02 08:22:41;;;;;;;11.60;10.53;;;20.30;92.90;;;;;;5060174;28;20426;-76
2022/09/02 08:25:10;;;;;;;13.20;11.80;;;20.40;92.90;;;;;;5058569;28;20500;-77
2022/09/02 08:27:40;;;;;;;11.80;10.97;;;20.40;92.90;;;;;;5060122;28;20418;-78
2022/09/02 08:30:09;;;;;;;11.20;10.30;;;20.50;92.80;;;;;;5058437;28;20470;-76
2022/09/02 08:32:39;;;;;;;12.10;11.00;;;20.50;92.60;;;;;;5058793;28;20453;-76
2022/09/02 08:35:09;;;;;;;11.90;10.90;;;20.60;92.50;;;;;;5059805;28;20843;-76
2022/09/02 08:37:38;;;;;;;13.90;12.50;;;20.60;92.50;;;;;;5060035;28;20493;-76
2022/09/02 08:40:14;;;;;;;12.77;11.57;;;20.70;92.40;;;;;;5058551;28;20473;-77
2022/09/02 08:42:45;;;;;;;12.70;11.50;;;20.80;92.30;;;;;;5060115;28;20422;-76
2022/09/02 08:45:24;;;;;;;11.47;10.20;;;20.80;92.10;;;;;;5058412;28;20445;-77
2022/09/02 08:48:03;;;;;;;11.57;10.47;;;20.80;92.00;;;;;;5058705;28;20495;-76
2022/09/02 08:50:32;;;;;;;11.13;10.10;;;20.80;91.90;;;;;;5058408;28;20473;-76
2022/09/02 08:53:07;;;;;;;11.37;10.27;;;20.90;91.90;;;;;;5059661;28;20432;-76
2022/09/02 08:55:44;;;;;;;10.80;9.70;;;20.90;91.80;;;;;;5058698;28;20442;-77
2022/09/02 08:58:17;;;;;;;9.00;8.10;;;21.00;91.90;;;;;;5059388;28;20540;-77
2022/09/02 09:00:51;;;;;;;12.27;8.53;;;21.00;91.90;;;;;;5058239;28;20478;-76
2022/09/02 09:03:27;;;;;;;10.27;9.03;;;21.10;91.80;;;;;;5059740;28;20435;-77
2022/09/02 09:06:05;;;;;;;10.43;8.00;;;21.10;91.60;;;;;;5059735;28;20465;-78
2022/09/02 09:08:40;;;;;;;10.07;9.07;;;21.20;91.60;;;;;;5059293;28;20453;-76
2022/09/02 09:11:19;;;;;;;8.70;7.80;;;21.30;91.70;;;;;;5058124;28;20544;-76
2022/09/02 09:14:09;;;;;;;8.33;7.53;;;21.40;91.60;;;;;;5059722;28;20461;-76
2022/09/02 09:16:41;;;;;;;7.30;6.60;;;21.50;91.50;;;;;;5059970;28;20442;-78
2022/09/02 09:19:13;;;;;;;10.80;7.33;;;21.50;91.30;;;;;;5058158;28;21048;-76
2022/09/02 09:21:43;;;;;;;9.70;8.70;;;21.60;91.20;;;;;;5059233;28;20442;-76
2022/09/02 09:24:22;;;;;;;12.47;9.90;;;21.60;91.00;;;;;;5057960;28;20454;-76
2022/09/02 09:26:54;;;;;;;10.10;8.83;;;21.60;90.90;;;;;;5057775;28;20512;-76
2022/09/02 09:29:22;;;;;;;8.40;7.60;;;21.70;90.80;;;;;;5054767;28;20881;-76
2022/09/02 09:32:00;;;;;;;9.30;6.20;;;21.70;90.70;;;;;;5056079;28;20932;-76
2022/09/02 09:34:55;;;;;;;6.20;5.60;;;21.80;90.50;;;;;;5056302;28;20414;-76
2022/09/02 09:37:32;;;;;;;12.83;6.00;;;21.80;90.30;;;;;;5054752;28;20977;-76
2022/09/02 09:40:26;;;;;;;5.63;4.30;;;21.90;90.30;;;;;;5055728;28;20848;-76
2022/09/02 09:42:58;;;;;;;4.57;4.17;;;21.90;90.20;;;;;;5054660;28;20474;-77
2022/09/02 09:45:30;;;;;;;4.63;4.17;;;22.00;90.20;;;;;;5055793;28;20437;-76
2022/09/02 09:48:22;;;;;;;6.50;3.80;;;22.00;90.20;;;;;;5054432;28;20496;-76
2022/09/02 09:51:13;;;;;;;6.03;4.57;;;22.20;90.20;;;;;;5055975;28;20457;-76
2022/09/02 09:53:41;;;;;;;5.50;4.87;;;22.20;90.00;;;;;;5055679;28;20426;-76
2022/09/02 09:56:26;;;;;;;4.13;3.53;;;22.30;90.00;;;;;;5054289;28;20442;-76
2022/09/02 09:58:55;;;;;;;4.97;3.70;;;22.40;90.00;;;;;;5056337;28;20450;-77
2022/09/02 10:01:26;;;;;;;5.27;4.77;;;22.40;89.20;;;;;;5054891;28;20445;-78
2022/09/02 10:03:59;;;;;;;6.20;5.60;;;22.50;89.00;;;;;;5056532;28;20425;-77
2022/09/02 10:06:38;;;;;;;5.10;4.60;;;22.50;88.40;;;;;;5055893;28;20557;-77
2022/09/02 10:09:25;;;;;;;5.90;5.23;;;22.50;88.10;;;;;;5054000;28;20473;-78
2022/09/02 10:11:56;;;;;;;6.10;3.67;;;22.60;88.20;;;;;;5054178;28;20443;-76
2022/09/02 10:14:33;;;;;;;8.03;5.80;;;22.70;88.10;;;;;;5055509;28;20418;-76
2022/09/02 10:17:09;;;;;;;8.20;6.43;;;22.80;88.00;;;;;;5054098;28;20465;-76
2022/09/02 10:19:43;;;;;;;7.27;5.47;;;22.90;87.00;;;;;;5055455;28;20454;-76
2022/09/02 10:22:36;;;;;;;6.40;4.57;;;22.90;86.90;;;;;;5055511;28;20472;-76
2022/09/02 10:25:32;;;;;;;7.23;4.60;;;22.90;86.50;;;;;;5055607;28;20445;-77
2022/09/02 10:28:11;;;;;;;4.47;3.20;;;22.90;86.30;;;;;;5055495;28;20549;-76
2022/09/02 10:30:46;;;;;;;5.00;3.07;;;23.00;86.20;;;;;;5055090;28;20453;-76
2022/09/02 10:33:22;;;;;;;4.57;2.70;;;23.00;86.00;;;;;;5055238;28;20509;-76
2022/09/02 10:35:57;;;;;;;5.07;3.23;;;23.10;85.40;;;;;;5055154;28;20798;-76
2022/09/02 10:38:39;;;;;;;3.53;2.60;;;23.10;84.60;;;;;;5055124;28;20425;-77
2022/09/02 10:41:23;;;;;;;3.53;2.17;;;23.10;84.30;;;;;;5054729;28;20418;-77
2022/09/02 10:44:24;;;;;;;2.80;1.60;;;23.10;83.70;;;;;;5054824;28;20448;-76
2022/09/02 10:47:00;;;;;;;5.50;1.77;;;23.20;82.80;;;;;;5052953;28;20821;-77
2022/09/02 10:50:01;;;;;;;5.00;2.13;;;23.20;82.50;;;;;;5053565;28;21002;-77
2022/09/02 10:52:49;;;;;;;3.87;1.83;;;23.30;82.10;;;;;;5046694;28;20447;-77
2022/09/02 10:55:25;;;;;;;7.30;2.30;;;23.40;81.90;;;;;;5053651;28;20446;-77
2022/09/02 10:58:00;;;;;;;3.57;2.20;;;23.40;81.50;;;;;;5053468;28;20491;-77
2022/09/02 11:00:32;;;;;;;6.47;5.50;;;23.50;81.00;;;;;;5053233;28;20473;-77
2022/09/02 11:03:10;;;;;;;5.50;2.20;;;23.50;81.60;;;;;;5053290;28;20496;-76
2022/09/02 11:05:43;;;;;;;3.80;1.93;;;23.50;80.70;;;;;;5054919;28;20426;-77
2022/09/02 11:08:14;;;;;;;2.70;1.90;;;23.50;80.70;;;;;;5054348;28;20565;-77
2022/09/02 11:10:54;;;;;;;3.50;2.10;;;23.50;80.40;;;;;;5053155;28;20523;-76
2022/09/02 11:13:31;;;;;;;2.97;2.30;;;23.60;79.70;;;;;;5052929;28;20442;-76
2022/09/02 11:16:05;;;;;;;5.33;1.83;;;23.50;79.50;;;;;;5052908;28;20453;-76
2022/09/02 11:18:43;;;;;;;4.33;1.77;;;23.60;79.20;;;;;;5054090;28;20433;-76
2022/09/02 11:21:25;;;;;;;4.67;2.27;;;23.60;78.90;;;;;;5054259;28;20414;-76
2022/09/02 11:24:04;;;;;;;2.20;1.57;;;23.70;79.00;;;;;;5054228;28;20422;-76
2022/09/02 11:26:37;;;;;;;3.47;1.73;;;23.70;78.40;;;;;;5052585;28;20481;-76
2022/09/02 11:29:11;;;;;;;3.13;2.00;;;23.70;78.30;;;;;;5053963;28;20866;-76
2022/09/02 11:31:43;;;;;;;3.03;1.50;;;23.70;78.00;;;;;;5055257;28;20488;-76
2022/09/02 11:34:25;;;;;;;2.50;1.50;;;23.70;77.80;;;;;;5054583;28;20510;-77
2022/09/02 11:36:53;;;;;;;2.70;2.03;;;23.80;77.20;;;;;;5053716;28;20525;-77
2022/09/02 11:39:30;;;;;;;2.93;1.40;;;23.80;76.90;;;;;;5055147;28;20477;-77
2022/09/02 11:42:36;;;;;;;2.60;1.67;;;23.80;76.10;;;;;;5053816;28;20430;-77
2022/09/02 11:45:34;;;;;;;3.73;1.80;;;23.80;76.30;;;;;;5055245;28;20480;-78
2022/09/02 11:48:38;;;;;;;2.00;1.60;;;23.80;75.10;;;;;;5038977;28;20481;-77
2022/09/02 11:51:38;;;;;;;4.30;1.80;;;23.80;75.20;;;;;;5007976;28;20441;-77
2022/09/02 11:54:08;;;;;;;4.23;1.43;;;23.80;75.30;;;;;;5054030;28;20446;-77
2022/09/02 11:56:41;;;;;;;2.50;1.37;;;23.80;75.30;;;;;;5053777;28;20520;-77
2022/09/02 11:59:20;;;;;;;4.53;2.83;;;23.90;75.30;;;;;;5053024;28;20569;-78
2022/09/02 12:01:51;;;;;;;4.80;2.33;;;24.00;75.20;;;;;;5053690;28;20446;-79
2022/09/02 12:04:25;;;;;;;3.07;1.63;;;24.00;75.20;;;;;;5055517;28;20430;-77
2022/09/02 12:07:26;;;;;;;2.10;1.47;;;24.00;75.20;;;;;;5054654;28;20494;-77
2022/09/02 12:10:01;;;;;;;3.50;1.60;;;24.00;74.80;;;;;;5053598;28;20473;-77
2022/09/02 12:13:04;;;;;;;3.10;1.67;;;24.00;74.70;;;;;;5052852;28;20454;-77
2022/09/02 12:15:37;;;;;;;2.27;1.30;;;24.00;74.20;;;;;;5053086;28;20492;-77
2022/09/02 12:18:30;;;;;;;2.40;1.50;;;24.00;74.10;;;;;;5055203;28;20449;-77
2022/09/02 12:21:14;;;;;;;2.77;2.13;;;24.00;73.40;;;;;;5054847;28;20422;-76
2022/09/02 12:24:25;;;;;;;2.17;1.57;;;24.00;73.60;;;;;;5052454;28;20445;-76
2022/09/02 12:27:22;;;;;;;2.30;1.50;;;24.00;73.10;;;;;;5053603;28;20468;-77
2022/09/02 12:29:52;;;;;;;3.73;1.70;;;24.00;72.80;;;;;;5051859;28;20505;-76
2022/09/02 12:33:12;;;;;;;2.13;1.57;;;24.00;72.90;;;;;;5052187;28;20815;-77
2022/09/02 12:35:52;;;;;;;2.77;1.53;;;24.00;73.10;;;;;;5052808;28;20458;-77
2022/09/02 12:38:28;;;;;;;3.57;1.60;;;24.10;72.80;;;;;;5053296;28;20903;-77
2022/09/02 12:41:23;;;;;;;2.20;1.50;;;24.10;72.70;;;;;;5052263;28;20430;-76
2022/09/02 12:44:12;;;;;;;2.60;1.30;;;24.00;72.20;;;;;;5053694;28;20418;-77
2022/09/02 12:46:52;;;;;;;4.33;1.67;;;24.00;72.50;;;;;;5050463;28;20477;-77
2022/09/02 12:49:47;;;;;;;5.97;1.90;;;24.10;72.60;;;;;;5053696;28;20509;-77
2022/09/02 12:52:43;;;;;;;4.37;2.00;;;24.10;72.50;;;;;;5052420;28;20496;-77
2022/09/02 12:55:18;;;;;;;2.80;1.40;;;24.20;72.80;;;;;;5053040;28;20815;-77
2022/09/02 12:57:51;;;;;;;3.00;1.70;;;24.20;72.80;;;;;;5053298;28;20899;-77
2022/09/02 13:00:30;;;;;;;2.93;1.63;;;24.30;72.50;;;;;;5053077;28;20561;-77
2022/09/02 13:03:12;;;;;;;2.77;1.70;;;24.30;72.40;;;;;;5056355;28;20414;-77
2022/09/02 13:05:53;;;;;;;2.30;1.47;;;24.40;72.00;;;;;;5055832;28;20438;-77
2022/09/02 13:09:04;;;;;;;5.30;1.87;;;24.40;71.40;;;;;;5056690;28;21069;-76
2022/09/02 13:12:07;;;;;;;3.43;1.27;;;24.40;71.00;;;;;;5055725;28;20533;-76
2022/09/02 13:14:57;;;;;;;2.70;1.40;;;24.40;71.30;;;;;;5055629;28;20520;-77
2022/09/02 13:17:43;;;;;;;2.33;1.40;;;24.40;71.40;;;;;;5056768;28;20438;-77
2022/09/02 13:20:48;;;;;;;4.50;1.80;;;24.50;71.30;;;;;;5058075;28;20475;-77
2022/09/02 13:23:55;;;;;;;5.23;1.50;;;24.50;71.20;;;;;;5058622;28;20481;-78
2022/09/02 13:26:39;;;;;;;2.30;1.40;;;24.50;70.80;;;;;;5058985;28;20433;-79